Time;durP1;ratioP1;P1;durP2;ratioP2;P2;SDS_P1;SDS_P2;PMS_P1;PMS_P2;Temp;Humidity;BMP_temperature;BMP_pressure;BME280_temperature;BME280_humidity;BME280_pressure;Samples;Min_cycle;Max_cycle;Signal;HPM_P1;HPM_P2
2023/02/24 00:02:13;;;;;;;25.60;19.03;;;8.90;98.70;;;9.01;83.23;97480.75;5027774;28;20484;-73
2023/02/24 00:04:41;;;;;;;27.10;19.90;;;9.00;98.00;;;9.08;82.49;97484.19;5046265;28;20452;-72
2023/02/24 00:07:10;;;;;;;26.37;19.80;;;8.90;98.50;;;9.02;82.89;97480.53;5047479;28;20494;-73
2023/02/24 00:09:39;;;;;;;29.60;20.73;;;9.00;97.20;;;8.75;82.89;97464.56;5059020;28;20470;-71
2023/02/24 00:12:10;;;;;;;31.63;21.30;;;8.90;96.80;;;8.86;83.03;97475.66;5047303;28;20514;-72
2023/02/24 00:14:40;;;;;;;30.03;21.50;;;8.90;97.10;;;8.66;83.76;97465.03;5046765;28;20458;-72
2023/02/24 00:17:09;;;;;;;25.77;20.73;;;8.80;97.50;;;8.85;82.81;97479.41;5046969;28;20454;-71
2023/02/24 00:19:38;;;;;;;31.30;20.67;;;8.80;97.60;;;8.74;83.60;97476.38;5046262;28;20449;-70
2023/02/24 00:22:08;;;;;;;28.60;21.00;;;8.80;97.50;;;8.66;83.83;97470.41;5062122;28;20456;-72
2023/02/24 00:24:36;;;;;;;27.93;22.00;;;8.80;98.00;;;8.62;84.52;97470.03;5046701;28;20472;-72
2023/02/24 00:27:06;;;;;;;27.30;21.20;;;8.70;98.50;;;8.33;83.55;97396.84;5046258;28;20450;-72
2023/02/24 00:29:36;;;;;;;30.73;22.00;;;8.80;98.80;;;8.73;84.46;97472.03;5046906;28;20814;-69
2023/02/24 00:32:06;;;;;;;35.70;23.30;;;8.80;98.60;;;8.61;84.58;97473.75;5053125;28;20529;-72
2023/02/24 00:34:36;;;;;;;27.70;21.37;;;8.70;98.80;;;8.73;84.97;97466.66;5062533;28;20832;-71
2023/02/24 00:37:06;;;;;;;27.00;21.23;;;8.80;98.70;;;8.67;85.22;97459.41;5051333;28;20459;-72
2023/02/24 00:39:34;;;;;;;27.30;21.50;;;8.70;99.30;;;8.71;84.26;97452.53;5050346;28;20474;-72
2023/02/24 00:42:04;;;;;;;33.13;21.20;;;8.70;99.30;;;8.65;84.91;97445.34;5045607;28;20440;-71
2023/02/24 00:44:33;;;;;;;32.67;22.10;;;8.70;99.90;;;8.66;85.51;97436.22;5026573;28;20458;-71
2023/02/24 00:47:01;;;;;;;34.30;23.20;;;8.70;99.90;;;8.75;84.82;97443.00;5026538;28;20455;-72
2023/02/24 00:49:29;;;;;;;32.20;23.63;;;8.70;99.90;;;8.80;84.74;97439.66;5056780;28;20547;-70
2023/02/24 00:51:58;;;;;;;30.73;23.50;;;8.70;99.90;;;8.79;84.34;97429.91;5044113;28;20512;-72
2023/02/24 00:54:27;;;;;;;31.10;22.50;;;8.70;99.90;;;8.78;84.88;97426.41;5045685;28;20516;-72
2023/02/24 00:56:55;;;;;;;29.43;24.17;;;8.80;99.90;;;8.75;84.55;97426.84;5046760;28;20472;-73
2023/02/24 00:59:24;;;;;;;29.10;22.20;;;8.70;99.90;;;8.90;84.26;97423.00;5046564;28;20471;-72
2023/02/24 01:01:53;;;;;;;30.00;23.10;;;8.80;99.90;;;8.88;84.13;97414.31;5046383;28;20453;-70
2023/02/24 01:04:21;;;;;;;31.53;23.20;;;8.80;99.60;;;8.86;83.95;97417.22;5045251;28;21038;-73
2023/02/24 01:06:58;;;;;;;34.30;24.30;;;8.80;99.40;;;8.62;85.09;97410.78;5046620;28;20546;-71
2023/02/24 01:09:30;;;;;;;31.23;22.97;;;8.70;99.10;;;8.76;84.54;97412.34;5042064;28;20518;-73
2023/02/24 01:14:46;;;;;;;32.90;23.80;;;8.80;99.90;;;8.65;84.36;97413.03;5059091;28;20533;-73
2023/02/24 01:17:15;;;;;;;28.77;22.70;;;8.70;98.60;;;8.73;84.19;97406.56;5052349;28;20497;-73
2023/02/24 01:19:43;;;;;;;32.20;23.63;;;8.70;99.70;;;8.76;84.38;97403.41;5046657;28;20447;-71
2023/02/24 01:22:15;;;;;;;31.40;23.60;;;8.70;99.30;;;8.79;84.28;97402.97;5049343;28;20463;-71
2023/02/24 01:24:45;;;;;;;30.70;23.97;;;8.70;99.80;;;8.75;84.00;97405.28;5050018;28;20448;-72
2023/02/24 01:27:13;;;;;;;32.63;23.17;;;8.70;99.90;;;8.34;83.99;97329.34;5048995;28;20500;-72
2023/02/24 01:29:43;;;;;;;33.90;23.80;;;8.60;99.90;;;8.84;83.95;97399.63;5065636;28;20476;-72
2023/02/24 01:32:17;;;;;;;32.67;23.33;;;8.60;99.60;;;8.71;84.25;97389.78;5062656;28;20923;-72
2023/02/24 01:34:45;;;;;;;29.03;22.30;;;8.60;99.90;;;8.83;83.88;97395.28;5029899;28;20878;-71
2023/02/24 01:37:15;;;;;;;35.17;24.80;;;8.70;99.90;;;8.86;83.83;97402.91;5030087;28;20468;-70
2023/02/24 01:39:45;;;;;;;33.40;24.03;;;8.70;99.90;;;8.77;84.37;97386.22;5030665;28;20442;-72
2023/02/24 01:42:18;;;;;;;34.20;25.03;;;8.70;99.90;;;8.75;84.96;97391.84;5029341;28;20862;-72
2023/02/24 01:45:20;;;;;;;35.03;25.23;;;8.80;99.70;;;8.84;85.75;97391.53;5028449;28;20771;-74
2023/02/24 01:47:48;;;;;;;36.83;25.37;;;8.80;99.90;;;8.68;85.70;97388.34;5006864;28;20446;-72
2023/02/24 01:50:20;;;;;;;34.63;24.10;;;8.80;99.90;;;8.76;85.89;97395.34;5047642;28;20520;-72
2023/02/24 01:52:50;;;;;;;33.17;24.80;;;8.80;99.90;;;8.76;85.90;97392.63;5046539;28;20451;-72
2023/02/24 01:55:23;;;;;;;39.40;26.70;;;8.80;99.90;;;8.67;85.22;97373.22;5044140;28;20507;-71
2023/02/24 01:57:52;;;;;;;35.37;26.10;;;8.80;99.90;;;8.58;86.59;97382.66;5029407;28;20461;-73
2023/02/24 02:00:36;;;;;;;37.33;26.87;;;8.70;99.90;;;8.62;86.75;97383.84;5045741;28;20455;-71
2023/02/24 02:03:14;;;;;;;36.43;25.77;;;8.60;99.90;;;8.55;86.95;97377.66;5030463;28;20457;-71
2023/02/24 02:05:44;;;;;;;41.13;28.20;;;8.50;99.90;;;8.44;87.43;97371.94;5045068;28;20805;-70
2023/02/24 02:08:13;;;;;;;35.70;25.93;;;8.50;99.90;;;8.25;88.12;97370.16;5065331;28;21018;-71
2023/02/24 02:10:45;;;;;;;35.63;25.30;;;8.40;99.90;;;8.29;89.09;97376.78;5064288;28;20458;-70
2023/02/24 02:13:19;;;;;;;45.47;27.73;;;8.30;99.90;;;8.44;88.46;97363.00;5045190;28;20446;-72
2023/02/24 02:16:15;;;;;;;38.27;28.90;;;8.40;99.90;;;8.38;88.37;97361.22;5046819;28;20457;-71
2023/02/24 02:18:57;;;;;;;36.97;26.60;;;8.30;99.90;;;8.29;88.63;97361.44;5065082;28;20525;-70
2023/02/24 02:22:05;;;;;;;40.50;28.63;;;8.30;99.90;;;8.38;88.96;97364.72;5048349;28;20482;-72
2023/02/24 02:24:54;;;;;;;40.93;28.30;;;8.40;99.90;;;8.28;89.20;97359.81;5062376;28;20521;-72
2023/02/24 02:27:37;;;;;;;40.30;29.03;;;8.30;99.90;;;8.22;89.58;97344.53;5048980;28;20466;-72
2023/02/24 02:30:47;;;;;;;38.10;27.67;;;8.30;99.90;;;8.20;89.63;97344.75;5039002;28;20470;-72
2023/02/24 02:34:04;;;;;;;41.37;29.20;;;8.30;99.90;;;8.23;89.64;97344.31;5050415;28;20964;-73
2023/02/24 02:36:42;;;;;;;45.40;28.17;;;8.30;99.90;;;8.14;90.17;97345.63;5028588;28;20883;-72
2023/02/24 02:39:16;;;;;;;42.00;28.87;;;8.20;99.90;;;8.38;89.41;97339.66;5028335;28;20906;-73
2023/02/24 02:41:53;;;;;;;43.83;29.57;;;8.20;99.90;;;8.20;89.32;97350.13;5028528;28;20750;-72
2023/02/24 02:44:31;;;;;;;40.63;28.53;;;8.20;99.90;;;8.21;89.45;97341.00;5028960;28;20933;-71
2023/02/24 02:47:03;;;;;;;40.93;29.30;;;8.30;99.90;;;8.14;90.19;97337.53;5048523;28;20540;-72
2023/02/24 02:49:38;;;;;;;41.90;30.73;;;8.20;99.90;;;8.05;90.31;97334.28;5049047;28;20488;-71
2023/02/24 02:52:12;;;;;;;45.63;30.20;;;8.20;99.90;;;8.13;89.88;97332.38;5045222;28;20465;-72
2023/02/24 02:54:48;;;;;;;43.93;29.17;;;8.10;99.90;;;8.00;90.26;97328.72;5043813;28;20997;-72
2023/02/24 02:57:20;;;;;;;42.87;30.03;;;8.10;99.90;;;8.02;90.96;97348.16;5039809;28;20451;-73
2023/02/24 02:59:53;;;;;;;40.93;28.67;;;8.10;99.90;;;8.21;89.77;97341.00;5049820;28;20692;-72
2023/02/24 03:02:28;;;;;;;46.50;30.10;;;8.10;99.90;;;8.26;88.98;97336.84;5063510;28;20452;-72
2023/02/24 03:04:59;;;;;;;43.93;28.70;;;8.20;99.90;;;8.19;88.85;97323.44;5064155;28;20461;-70
2023/02/24 03:07:31;;;;;;;44.23;29.00;;;8.20;99.90;;;8.13;89.03;97327.81;5065622;28;20482;-70
2023/02/24 03:10:03;;;;;;;41.53;28.37;;;8.10;99.90;;;8.27;87.95;97328.56;5084852;28;20535;-70
2023/02/24 03:12:32;;;;;;;43.30;30.00;;;8.20;99.90;;;8.21;88.14;97324.84;5065838;28;20447;-69
2023/02/24 03:15:04;;;;;;;37.27;27.20;;;8.20;99.90;;;8.23;87.77;97328.16;5062807;28;20445;-72
2023/02/24 03:17:35;;;;;;;41.30;29.07;;;8.20;99.90;;;8.30;87.89;97317.34;5029911;28;20450;-72
2023/02/24 03:20:16;;;;;;;40.37;28.73;;;8.10;99.90;;;8.24;87.90;97323.59;5028845;28;20838;-71
2023/02/24 03:22:50;;;;;;;41.57;28.87;;;8.20;99.90;;;8.26;87.65;97315.31;5043952;28;20504;-71
2023/02/24 03:25:24;;;;;;;41.03;29.03;;;8.30;99.90;;;8.31;87.59;97316.31;5046485;28;20436;-73
2023/02/24 03:27:56;;;;;;;46.50;28.80;;;8.20;99.90;;;8.12;88.14;97303.81;5043779;28;20464;-72
2023/02/24 03:30:32;;;;;;;39.07;27.47;;;8.20;99.90;;;8.29;87.10;97323.78;5028517;28;20468;-72
2023/02/24 03:33:05;;;;;;;44.03;28.90;;;8.30;99.90;;;7.91;87.32;97312.00;5028574;28;20448;-71
2023/02/24 03:35:40;;;;;;;38.87;28.97;;;8.20;99.90;;;7.99;88.08;97307.44;5026506;28;20545;-67
2023/02/24 03:38:09;;;;;;;44.03;28.60;;;8.10;99.90;;;8.02;87.63;97313.19;5028658;28;20447;-73
2023/02/24 03:40:38;;;;;;;38.90;27.00;;;8.10;99.90;;;8.09;87.31;97302.38;5042942;28;20449;-74
2023/02/24 03:43:15;;;;;;;45.90;28.50;;;8.10;99.90;;;8.06;87.13;97295.59;5027875;28;20506;-72
2023/02/24 03:45:45;;;;;;;35.80;27.50;;;8.10;99.90;;;8.08;87.16;97303.41;5038505;28;20537;-73
2023/02/24 03:48:12;;;;;;;39.90;27.80;;;8.00;99.90;;;8.15;86.93;97308.75;5025391;28;20536;-72
2023/02/24 03:50:42;;;;;;;42.77;28.20;;;8.00;99.90;;;8.19;86.46;97310.81;5029131;28;20508;-70
2023/02/24 03:53:29;;;;;;;37.00;27.80;;;8.10;99.90;;;7.99;87.45;97310.13;5042805;28;20882;-72
2023/02/24 03:56:15;;;;;;;43.83;28.90;;;8.00;99.90;;;8.00;87.49;97301.00;5031824;28;20459;-73
2023/02/24 03:59:01;;;;;;;41.53;29.17;;;8.00;99.90;;;8.12;87.66;97310.03;5045193;28;20509;-71
2023/02/24 04:01:36;;;;;;;43.17;29.83;;;8.10;99.90;;;8.17;87.36;97307.50;5047435;28;20452;-70
2023/02/24 04:04:11;;;;;;;38.57;27.33;;;8.10;99.90;;;8.03;86.65;97305.94;5062804;28;20513;-68
2023/02/24 04:06:48;;;;;;;42.60;26.53;;;8.10;99.90;;;7.97;86.87;97312.19;5046544;28;20455;-72
2023/02/24 04:09:25;;;;;;;41.97;28.50;;;8.10;99.90;;;7.94;87.36;97302.69;5056662;28;20509;-74
2023/02/24 04:12:00;;;;;;;39.07;27.60;;;8.00;99.90;;;7.96;87.03;97294.38;5063397;28;20836;-71
2023/02/24 04:14:33;;;;;;;45.27;29.33;;;7.90;99.90;;;7.87;87.30;97291.13;5047839;28;20448;-71
2023/02/24 04:17:06;;;;;;;43.97;28.30;;;7.90;99.90;;;7.92;87.79;97296.69;5064928;28;20937;-71
2023/02/24 04:19:39;;;;;;;43.10;28.03;;;7.90;99.90;;;7.88;87.74;97276.63;5050388;28;20474;-69
2023/02/24 04:22:12;;;;;;;40.73;27.07;;;7.80;99.90;;;7.74;87.43;97243.63;5054826;28;20475;-71
2023/02/24 04:24:42;;;;;;;43.83;28.50;;;8.00;99.90;;;8.01;87.67;97294.56;5051381;28;20509;-70
2023/02/24 04:27:12;;;;;;;41.50;29.43;;;8.00;99.90;;;7.79;88.25;97284.97;5049647;28;20883;-72
2023/02/24 04:29:46;;;;;;;43.07;29.97;;;7.90;99.90;;;7.75;88.60;97299.06;5042074;28;20493;-73
2023/02/24 04:32:16;;;;;;;46.30;29.87;;;7.90;99.90;;;7.74;88.63;97294.72;5025816;28;21148;-73
2023/02/24 04:34:44;;;;;;;49.20;29.23;;;7.80;99.90;;;7.77;88.40;97287.06;5041728;28;20960;-72
2023/02/24 04:37:13;;;;;;;44.63;29.50;;;7.80;99.90;;;7.65;89.16;97289.56;5042021;28;20800;-72
2023/02/24 04:39:41;;;;;;;47.13;31.33;;;7.70;99.90;;;7.69;88.88;97278.41;5026068;28;21017;-71
2023/02/24 04:42:08;;;;;;;46.47;29.40;;;7.70;99.90;;;7.86;88.40;97279.56;5042210;28;20447;-71
2023/02/24 04:44:35;;;;;;;46.87;30.37;;;7.80;99.90;;;7.70;88.34;97282.75;5058496;28;20442;-72
2023/02/24 04:47:03;;;;;;;47.40;29.07;;;7.80;99.90;;;7.64;88.64;97282.56;5029267;28;21000;-71
2023/02/24 04:49:30;;;;;;;42.90;30.07;;;7.70;99.90;;;7.63;88.45;97280.09;5043854;28;20481;-70
2023/02/24 04:51:58;;;;;;;46.27;28.67;;;7.80;99.90;;;7.69;88.29;97273.03;5049972;28;20938;-75
2023/02/24 04:54:28;;;;;;;44.90;29.37;;;7.80;99.90;;;7.62;88.17;97281.13;5055676;28;20660;-72
2023/02/24 04:56:55;;;;;;;43.03;28.07;;;7.80;99.90;;;7.65;88.07;97278.81;5049692;28;20941;-71
2023/02/24 04:59:23;;;;;;;46.63;29.50;;;7.80;99.90;;;7.59;88.29;97265.44;5041643;28;20457;-72
2023/02/24 05:01:53;;;;;;;47.63;29.80;;;7.80;99.90;;;7.69;88.04;97264.97;5029265;28;20467;-71
2023/02/24 05:04:21;;;;;;;44.87;28.47;;;7.80;99.90;;;7.72;87.72;97269.91;5045010;28;20460;-72
2023/02/24 05:06:48;;;;;;;43.63;29.47;;;7.80;99.90;;;7.52;87.74;97257.41;5032534;28;20448;-72
2023/02/24 05:09:17;;;;;;;51.07;30.43;;;7.80;99.90;;;7.68;87.43;97261.44;5031960;28;21030;-70
2023/02/24 05:11:49;;;;;;;43.20;28.30;;;7.80;99.90;;;7.63;86.85;97253.22;5030701;28;20481;-73
2023/02/24 05:14:19;;;;;;;43.50;29.07;;;7.80;99.90;;;7.64;86.82;97244.91;5045414;28;20445;-72
2023/02/24 05:16:49;;;;;;;46.27;29.33;;;7.80;99.90;;;7.71;87.05;97244.06;5045499;28;20440;-71
2023/02/24 05:22:05;;;;;;;47.87;29.07;;;7.80;99.90;;;7.27;86.63;97172.16;5056582;28;20456;-72
2023/02/24 05:24:33;;;;;;;44.80;27.93;;;7.90;99.90;;;7.64;87.19;97247.59;5065379;28;20450;-72
2023/02/24 05:27:02;;;;;;;43.73;27.90;;;7.80;99.90;;;7.53;87.63;97251.00;5050186;28;20448;-72
2023/02/24 05:29:34;;;;;;;47.60;28.90;;;7.80;99.90;;;7.50;88.10;97233.41;5049124;28;23994;-69
2023/02/24 05:32:04;;;;;;;46.27;29.73;;;7.70;99.90;;;7.65;87.27;97230.44;5053918;28;20438;-72
2023/02/24 05:34:33;;;;;;;44.50;28.43;;;7.70;99.90;;;7.57;87.46;97221.78;5029603;28;20539;-71
2023/02/24 05:37:08;;;;;;;43.17;28.83;;;7.70;99.90;;;7.50;87.80;97227.22;5028180;28;20503;-72
2023/02/24 05:39:36;;;;;;;45.87;28.70;;;7.70;99.90;;;7.43;88.34;97231.81;5029505;28;20445;-71
2023/02/24 05:42:06;;;;;;;48.87;30.03;;;7.60;99.90;;;7.41;88.25;97228.50;5044391;28;20456;-71
2023/02/24 05:44:34;;;;;;;44.50;29.80;;;7.60;99.90;;;7.34;88.77;97223.16;5049291;28;20509;-72
2023/02/24 05:47:04;;;;;;;45.60;28.03;;;7.50;99.90;;;7.40;88.42;97218.81;5049217;28;20451;-72
2023/02/24 05:49:34;;;;;;;47.93;30.50;;;7.50;99.90;;;7.36;88.43;97210.34;5053953;28;21096;-72
2023/02/24 05:52:06;;;;;;;50.50;30.17;;;7.50;99.90;;;7.44;87.87;97211.94;5047967;28;20466;-73
2023/02/24 05:54:36;;;;;;;52.40;32.97;;;7.60;99.90;;;7.39;88.31;97203.72;5049461;28;20467;-72
2023/02/24 05:57:10;;;;;;;45.43;27.60;;;7.50;99.90;;;7.56;87.57;97210.22;5049402;28;20451;-72
2023/02/24 05:59:38;;;;;;;42.80;28.77;;;7.60;99.90;;;7.50;87.65;97205.69;5049623;28;20596;-73
2023/02/24 06:02:08;;;;;;;47.17;29.60;;;7.60;99.90;;;7.45;87.88;97203.69;5045050;28;20591;-72
2023/02/24 06:04:45;;;;;;;51.73;31.20;;;7.60;99.90;;;7.43;87.79;97196.88;5049360;28;20458;-73
2023/02/24 06:07:17;;;;;;;49.70;28.60;;;7.60;99.90;;;7.46;87.16;97199.97;5064151;28;21244;-73
2023/02/24 06:09:48;;;;;;;51.43;33.43;;;7.50;99.90;;;7.48;87.76;97202.41;5048599;28;20550;-73
2023/02/24 06:12:18;;;;;;;47.93;29.30;;;7.50;99.90;;;7.40;87.30;97200.81;5043937;28;21328;-71
2023/02/24 06:14:46;;;;;;;50.07;28.83;;;7.50;99.90;;;7.28;87.49;97192.59;5029126;28;20450;-72
2023/02/24 06:17:15;;;;;;;54.40;31.47;;;7.50;99.90;;;7.28;88.18;97197.13;5029116;28;20440;-71
2023/02/24 06:19:43;;;;;;;51.90;29.27;;;7.50;99.90;;;7.22;88.15;97194.28;5061262;28;20450;-72
2023/02/24 06:22:13;;;;;;;48.47;30.23;;;7.40;99.90;;;7.02;88.08;97162.13;5063751;28;20934;-69
2023/02/24 06:24:43;;;;;;;53.30;31.00;;;7.30;99.90;;;7.40;88.99;97191.94;5066128;28;20440;-69
2023/02/24 06:27:16;;;;;;;55.47;31.73;;;7.40;99.90;;;7.54;88.57;97189.97;5083306;28;20445;-70
2023/02/24 06:29:48;;;;;;;54.77;31.93;;;7.60;99.90;;;7.38;87.74;97192.13;5066574;28;20493;-69
2023/02/24 06:32:16;;;;;;;56.23;33.50;;;7.50;99.90;;;7.54;88.02;97196.19;5052750;28;20476;-72
2023/02/24 06:34:43;;;;;;;51.43;32.47;;;7.60;99.90;;;7.46;87.86;97183.00;5029607;28;21012;-71
2023/02/24 06:37:14;;;;;;;49.97;30.40;;;7.60;99.90;;;7.56;86.80;97190.59;5039000;28;20463;-72
2023/02/24 06:39:42;;;;;;;44.87;29.20;;;7.70;99.90;;;7.76;87.25;97190.44;5051057;28;20485;-72
2023/02/24 06:42:11;;;;;;;49.60;30.97;;;7.70;99.90;;;7.76;87.17;97185.06;5042237;28;20475;-70
2023/02/24 06:44:40;;;;;;;45.57;30.50;;;7.80;99.90;;;7.85;85.47;97191.00;5032120;28;20517;-68
2023/02/24 06:47:15;;;;;;;42.73;29.20;;;7.90;99.90;;;7.81;85.46;97193.34;5048585;28;20439;-71
2023/02/24 06:49:42;;;;;;;47.47;31.27;;;7.90;99.60;;;7.70;86.18;97183.28;5049764;28;20478;-70
2023/02/24 06:52:17;;;;;;;54.33;32.90;;;7.90;99.20;;;7.61;86.31;97174.66;5044949;28;20847;-72
2023/02/24 06:54:46;;;;;;;53.37;32.03;;;7.80;99.70;;;7.85;86.14;97181.09;5043482;28;20537;-71
2023/02/24 06:57:13;;;;;;;47.10;29.57;;;7.90;99.90;;;8.11;85.60;97181.91;5068126;28;20463;-72
2023/02/24 06:59:41;;;;;;;50.23;30.30;;;8.10;99.90;;;8.27;84.06;97183.22;5085329;28;20439;-70
2023/02/24 07:02:11;;;;;;;46.00;29.60;;;8.30;97.90;;;7.99;84.03;97178.31;5066848;28;20435;-73
2023/02/24 07:04:43;;;;;;;44.53;28.97;;;8.20;96.10;;;8.02;83.66;97186.72;5028393;28;20463;-73
2023/02/24 07:07:12;;;;;;;43.83;28.13;;;8.20;95.70;;;8.10;84.23;97188.31;5032026;28;20450;-72
2023/02/24 07:09:42;;;;;;;40.53;28.70;;;8.10;97.20;;;8.11;83.21;97183.78;5048205;28;20445;-72
2023/02/24 07:12:11;;;;;;;48.80;32.27;;;8.20;96.20;;;8.11;83.87;97187.28;5047451;28;20941;-73
2023/02/24 07:14:39;;;;;;;45.53;29.30;;;8.10;96.30;;;8.28;82.98;97192.13;5042451;28;20449;-71
2023/02/24 07:17:07;;;;;;;45.63;29.07;;;8.20;96.40;;;8.17;82.45;97188.28;5043587;28;20440;-70
2023/02/24 07:19:36;;;;;;;48.27;29.77;;;8.30;94.60;;;8.18;82.44;97190.75;5028422;28;20918;-73
2023/02/24 07:22:03;;;;;;;46.97;30.33;;;8.20;94.60;;;8.21;82.42;97170.66;5052989;28;20453;-70
2023/02/24 07:24:34;;;;;;;48.40;31.10;;;8.30;95.00;;;8.31;81.69;97176.34;5058607;28;20480;-72
2023/02/24 07:27:05;;;;;;;53.50;31.10;;;8.30;95.30;;;8.32;81.99;97186.06;5028690;28;20436;-74
2023/02/24 07:29:34;;;;;;;46.07;29.90;;;8.30;95.10;;;7.83;83.02;97124.00;5028282;28;20433;-72
2023/02/24 07:32:04;;;;;;;45.80;29.17;;;8.30;95.00;;;8.39;81.95;97180.63;5043156;28;21013;-72
2023/02/24 07:34:32;;;;;;;43.50;27.73;;;8.30;95.40;;;8.26;81.48;97173.50;5042523;28;20454;-72
2023/02/24 07:37:06;;;;;;;43.43;28.47;;;8.40;94.00;;;8.14;82.04;97172.56;5027605;28;20467;-72
2023/02/24 07:39:35;;;;;;;49.00;30.10;;;8.30;94.30;;;8.18;82.74;97169.22;5029832;28;20530;-72
2023/02/24 07:42:02;;;;;;;45.67;29.73;;;8.30;95.10;;;8.20;81.99;97169.03;5061725;28;20542;-72
2023/02/24 07:44:31;;;;;;;41.90;27.33;;;8.30;94.80;;;8.19;82.21;97162.78;5047621;28;20457;-70
2023/02/24 07:46:59;;;;;;;52.47;30.90;;;8.30;94.60;;;8.30;82.07;97160.44;5059511;28;20998;-72
2023/02/24 07:49:28;;;;;;;42.90;28.63;;;8.30;95.00;;;8.38;82.01;97165.50;5044807;28;20454;-71
2023/02/24 07:51:56;;;;;;;46.47;28.67;;;8.40;94.60;;;8.21;81.98;97162.59;5040889;28;20500;-72
2023/02/24 07:54:28;;;;;;;49.67;30.60;;;8.40;94.30;;;8.29;81.19;97145.34;5036183;28;20452;-72
2023/02/24 07:56:57;;;;;;;44.13;28.23;;;8.40;94.00;;;8.10;81.85;97129.13;5058064;28;20449;-70
2023/02/24 07:59:27;;;;;;;47.23;30.03;;;8.40;94.20;;;8.30;81.70;97142.41;5050187;28;20448;-71
2023/02/24 08:01:56;;;;;;;45.50;29.40;;;8.40;94.20;;;8.29;81.49;97148.03;5062744;28;20440;-71
2023/02/24 08:04:25;;;;;;;47.97;30.80;;;8.40;94.20;;;8.23;82.46;97144.34;5044765;28;20509;-70
2023/02/24 08:06:56;;;;;;;45.10;29.40;;;8.40;94.30;;;8.35;81.61;97150.66;5056566;28;20447;-69
2023/02/24 08:12:16;;;;;;;47.27;29.97;;;8.30;94.80;;;8.14;82.23;97124.97;5068138;28;20476;-68
2023/02/24 08:14:49;;;;;;;45.97;29.57;;;8.40;94.00;;;8.35;81.33;97137.19;5066007;28;20435;-71
2023/02/24 08:17:18;;;;;;;49.53;31.10;;;8.40;93.50;;;8.43;80.45;97143.31;5056483;28;20446;-70
2023/02/24 08:19:48;;;;;;;47.77;28.00;;;8.60;93.00;;;8.40;80.36;97136.50;5044469;28;20585;-69
2023/02/24 08:22:22;;;;;;;45.83;29.53;;;8.60;92.60;;;8.36;80.19;97144.22;5076997;28;20448;-73
2023/02/24 08:24:55;;;;;;;43.53;29.40;;;8.60;92.60;;;8.34;80.63;97140.09;5058742;28;20440;-70
2023/02/24 08:27:25;;;;;;;41.70;27.67;;;8.50;92.90;;;8.25;81.64;97119.88;5055249;28;20510;-72
2023/02/24 08:30:01;;;;;;;50.60;29.60;;;8.50;93.70;;;8.60;80.75;97138.22;5046086;28;20490;-74
2023/02/24 08:32:35;;;;;;;47.20;29.20;;;8.60;93.10;;;8.47;80.52;97121.13;5046217;28;20450;-74
2023/02/24 08:35:05;;;;;;;44.13;29.13;;;8.70;93.10;;;8.02;79.89;97068.38;5046200;28;20827;-73
2023/02/24 08:37:39;;;;;;;52.10;29.10;;;8.60;92.20;;;8.27;81.44;97128.59;5051110;28;20585;-71
2023/02/24 08:40:36;;;;;;;44.40;30.43;;;8.50;93.30;;;8.30;81.57;97120.88;5060655;28;20536;-72
2023/02/24 08:43:14;;;;;;;42.50;28.00;;;8.50;93.60;;;8.62;80.34;97117.25;5046358;28;20467;-73
2023/02/24 08:45:44;;;;;;;46.63;28.70;;;8.60;93.30;;;8.77;78.98;97111.47;5046094;28;20436;-73
2023/02/24 08:48:25;;;;;;;49.63;27.40;;;8.80;92.60;;;8.50;79.61;97118.00;5045838;28;20452;-73
2023/02/24 08:50:54;;;;;;;45.80;28.03;;;8.70;91.50;;;8.65;78.86;97111.41;5045320;28;20545;-71
2023/02/24 08:53:22;;;;;;;42.33;27.33;;;8.80;91.80;;;8.81;78.79;97117.25;5059308;28;20449;-74
2023/02/24 08:55:51;;;;;;;42.60;26.67;;;8.90;91.60;;;8.76;78.19;97107.16;5041944;28;20862;-72
2023/02/24 08:58:25;;;;;;;43.40;27.53;;;8.90;91.10;;;8.88;77.82;97107.22;5058669;28;20448;-71
2023/02/24 09:00:55;;;;;;;41.27;24.87;;;9.00;90.60;;;8.64;78.55;97107.09;5025203;28;20999;-72
2023/02/24 09:03:28;;;;;;;42.10;26.63;;;8.90;90.70;;;8.49;78.69;97104.72;5025964;28;20536;-74
2023/02/24 09:06:03;;;;;;;34.63;24.53;;;8.80;91.00;;;8.26;78.51;97102.69;5026149;28;20449;-71
2023/02/24 09:08:33;;;;;;;39.73;25.90;;;8.60;90.70;;;8.33;78.35;97096.19;5038542;28;20460;-71
2023/02/24 09:11:06;;;;;;;40.50;26.17;;;8.50;91.10;;;8.59;78.59;97112.34;5030246;28;20477;-72
2023/02/24 09:13:35;;;;;;;39.57;24.77;;;8.60;91.40;;;8.36;78.72;97103.00;5047569;28;20484;-73
2023/02/24 09:16:04;;;;;;;37.97;24.80;;;8.60;90.80;;;8.45;78.28;97099.00;5046020;28;20467;-74
2023/02/24 09:18:37;;;;;;;41.47;24.87;;;8.50;90.80;;;8.52;78.13;97109.72;5061493;28;20439;-73
2023/02/24 09:24:12;;;;;;;38.43;25.50;;;8.80;90.60;;;8.92;75.91;97082.28;5003598;28;20945;-73
2023/02/24 09:26:43;;;;;;;36.10;25.00;;;9.00;89.70;;;8.89;75.17;97082.75;4987235;28;20460;-74
2023/02/24 09:29:32;;;;;;;38.67;22.80;;;9.00;88.80;;;8.86;74.81;97082.38;5013331;28;20450;-72
2023/02/24 09:32:04;;;;;;;39.57;23.07;;;9.00;87.50;;;8.72;75.45;97077.19;5045426;28;20821;-71
2023/02/24 09:34:33;;;;;;;34.53;22.90;;;9.00;87.60;;;8.47;76.03;97090.66;5052449;28;20503;-73
2023/02/24 09:37:02;;;;;;;44.53;25.00;;;8.80;87.60;;;8.45;77.01;97082.84;5041258;28;20464;-72
2023/02/24 09:40:37;;;;;;;39.10;25.93;;;8.70;88.60;;;8.89;76.12;97076.53;5064874;28;20555;-70
2023/02/24 09:42:31;;;;;;;37.23;23.47;;;8.90;89.70;;;8.98;75.08;97064.38;5064549;28;20463;-73
2023/02/24 09:45:10;;;;;;;36.10;24.00;;;9.00;88.60;;;9.12;74.40;97048.03;5060053;28;20973;-73
2023/02/24 09:47:55;;;;;;;35.83;22.70;;;9.20;87.90;;;9.37;74.17;97058.63;5029580;28;20855;-75
2023/02/24 09:50:44;;;;;;;34.43;22.90;;;9.40;87.40;;;9.71;72.52;97055.41;5038583;28;20998;-72
2023/02/24 09:53:17;;;;;;;33.70;23.10;;;9.70;86.20;;;9.69;72.29;97052.94;5050065;28;20543;-72
2023/02/24 09:56:02;;;;;;;38.20;24.40;;;9.80;85.40;;;9.80;71.31;97054.03;5054199;28;20440;-73
2023/02/24 09:58:46;;;;;;;36.83;24.27;;;9.90;84.70;;;9.44;72.39;97061.22;5070421;28;20444;-71
2023/02/24 10:01:32;;;;;;;33.30;21.70;;;9.80;84.60;;;9.41;72.49;97059.00;5067177;28;20926;-73
2023/02/24 10:04:09;;;;;;;35.83;23.47;;;9.60;84.70;;;9.67;72.14;97048.84;5030163;28;20457;-72
2023/02/24 10:06:41;;;;;;;36.60;24.53;;;9.80;84.80;;;9.68;70.71;97045.91;5029142;28;20690;-74
2023/02/24 10:09:23;;;;;;;31.40;20.70;;;9.80;84.20;;;9.74;71.30;97049.53;5045796;28;20539;-72
2023/02/24 10:11:54;;;;;;;31.73;21.80;;;9.90;84.20;;;10.05;69.96;97031.34;5033958;28;20470;-74
2023/02/24 10:14:29;;;;;;;33.37;22.40;;;10.00;82.80;;;10.48;69.76;97032.84;5048888;28;20451;-71
2023/02/24 10:19:42;;;;;;;25.83;19.00;;;10.60;81.90;;;10.32;68.08;97014.66;5043705;28;20452;-72
2023/02/24 10:22:27;;;;;;;31.97;21.40;;;10.50;81.10;;;10.41;67.47;97020.53;5046874;28;20429;-73
2023/02/24 10:25:10;;;;;;;28.63;19.60;;;10.40;80.90;;;10.55;67.47;97010.28;5047333;28;20536;-72
2023/02/24 10:27:51;;;;;;;30.60;20.63;;;10.60;80.80;;;10.38;66.54;96993.97;5049829;28;20470;-73
2023/02/24 10:30:40;;;;;;;30.50;21.30;;;10.50;80.20;;;10.75;67.08;96962.03;5049970;28;20496;-72
2023/02/24 10:33:24;;;;;;;29.20;20.00;;;10.70;80.60;;;11.08;65.16;96970.47;5042190;28;20440;-73
2023/02/24 10:36:07;;;;;;;27.57;18.80;;;11.00;80.00;;;11.10;64.19;96978.31;5047667;28;20488;-73
2023/02/24 10:38:36;;;;;;;29.73;21.17;;;11.10;79.00;;;11.05;64.14;96982.56;5049563;28;20502;-72
2023/02/24 10:41:06;;;;;;;31.90;21.03;;;11.20;78.60;;;11.18;65.27;96986.03;5047491;28;20493;-71
2023/02/24 10:43:44;;;;;;;26.67;19.30;;;11.20;79.30;;;11.18;63.72;96983.31;5063691;28;20456;-73
2023/02/24 10:46:25;;;;;;;31.90;20.80;;;11.30;78.30;;;10.69;65.57;96967.59;5047331;28;20449;-71
2023/02/24 10:49:00;;;;;;;25.77;20.50;;;11.00;78.40;;;10.67;65.04;96970.53;5049022;28;20940;-72
2023/02/24 10:51:37;;;;;;;27.17;18.40;;;10.90;78.30;;;10.55;64.81;96948.16;5056990;28;20483;-73
2023/02/24 10:54:32;;;;;;;28.90;20.23;;;10.80;78.70;;;10.63;65.63;96955.88;5043614;28;20452;-74
2023/02/24 10:57:14;;;;;;;27.23;19.50;;;10.80;79.10;;;10.27;65.17;96958.66;5060404;28;20477;-72